createdAt,value
2023-01-17T00:01:17.511Z,2.90
2023-01-17T00:04:06.768Z,2.90
2023-01-17T00:06:55.395Z,3.10
2023-01-17T00:09:43.045Z,2.90
2023-01-17T00:12:13.518Z,3.00
2023-01-17T00:14:43.044Z,3.30
2023-01-17T00:17:12.721Z,3.00
2023-01-17T00:20:00.000Z,3.00
2023-01-17T00:22:51.692Z,3.00
2023-01-17T00:25:44.219Z,3.00
2023-01-17T00:28:13.124Z,3.00
2023-01-17T00:30:41.965Z,3.00
2023-01-17T00:33:11.015Z,3.10
2023-01-17T00:35:38.919Z,3.00
2023-01-17T00:38:12.716Z,3.00
2023-01-17T00:40:43.413Z,3.00
2023-01-17T00:43:38.568Z,3.40
2023-01-17T00:46:27.841Z,2.90
2023-01-17T00:49:15.341Z,2.90
2023-01-17T00:52:03.329Z,2.80
2023-01-17T00:54:58.047Z,2.80
2023-01-17T00:57:45.366Z,2.70
2023-01-17T01:00:34.195Z,2.60
2023-01-17T01:03:20.303Z,2.60
2023-01-17T01:06:15.425Z,2.60
2023-01-17T01:09:04.248Z,2.50
2023-01-17T01:11:52.155Z,2.70
2023-01-17T01:14:40.386Z,3.40
2023-01-17T01:17:29.894Z,2.70
2023-01-17T01:20:15.997Z,2.70
2023-01-17T01:23:04.475Z,2.70
2023-01-17T01:25:51.038Z,2.80
2023-01-17T01:31:42.994Z,2.90
2023-01-17T01:34:12.762Z,2.90
2023-01-17T01:36:42.192Z,2.90
2023-01-17T01:39:11.578Z,2.90
2023-01-17T01:41:41.975Z,3.00
2023-01-17T01:44:49.335Z,3.00
2023-01-17T01:47:40.867Z,3.00
2023-01-17T01:50:13.912Z,3.00
2023-01-17T01:52:53.932Z,3.10
2023-01-17T01:55:28.613Z,3.10
2023-01-17T01:58:13.239Z,3.10
2023-01-17T02:00:47.484Z,3.10
2023-01-17T02:03:25.383Z,3.00
2023-01-17T02:06:00.622Z,3.00
2023-01-17T02:08:29.826Z,3.00
2023-01-17T02:10:59.288Z,3.30
2023-01-17T02:13:33.633Z,3.20
2023-01-17T02:16:18.771Z,3.20
2023-01-17T02:19:01.524Z,3.10
2023-01-17T02:21:37.817Z,3.10
2023-01-17T02:25:05.554Z,3.10
2023-01-17T02:28:05.271Z,3.10
2023-01-17T02:30:41.481Z,3.10
2023-01-17T02:33:28.790Z,3.10
2023-01-17T02:36:14.501Z,3.10
2023-01-17T02:38:56.312Z,3.10
2023-01-17T02:41:35.230Z,3.20
2023-01-17T02:44:06.886Z,3.20
2023-01-17T02:46:47.777Z,3.20
2023-01-17T02:49:23.351Z,3.20
2023-01-17T02:52:17.912Z,3.20
2023-01-17T02:55:29.892Z,3.20
2023-01-17T02:58:37.849Z,3.20
2023-01-17T03:01:27.773Z,3.10
2023-01-17T03:04:06.713Z,3.00
2023-01-17T03:06:44.510Z,3.00
2023-01-17T03:09:18.596Z,2.90
2023-01-17T03:11:48.796Z,2.90
2023-01-17T03:14:19.280Z,2.90
2023-01-17T03:16:49.340Z,2.70
2023-01-17T03:19:22.391Z,2.80
2023-01-17T03:21:56.599Z,2.90
2023-01-17T03:24:27.831Z,2.60
2023-01-17T03:26:59.869Z,2.60
2023-01-17T03:29:31.559Z,2.60
2023-01-17T03:32:01.901Z,2.70
2023-01-17T03:34:33.353Z,2.70
2023-01-17T03:37:02.877Z,2.70
2023-01-17T03:39:35.179Z,2.70
2023-01-17T03:42:06.985Z,2.70
2023-01-17T03:44:37.622Z,2.80
2023-01-17T03:47:09.511Z,2.80
2023-01-17T03:49:43.219Z,2.80
2023-01-17T03:52:14.783Z,3.30
2023-01-17T03:54:44.956Z,2.90
2023-01-17T03:57:14.341Z,2.90
2023-01-17T03:59:46.144Z,2.90
2023-01-17T04:02:15.971Z,3.00
2023-01-17T04:04:50.133Z,3.00
2023-01-17T04:07:21.577Z,3.00
2023-01-17T04:09:52.124Z,3.90
2023-01-17T04:12:27.110Z,3.00
2023-01-17T04:14:56.997Z,3.00
2023-01-17T04:17:27.826Z,3.00
2023-01-17T04:19:58.164Z,2.80
2023-01-17T04:22:29.227Z,2.90
2023-01-17T04:24:58.222Z,3.00
2023-01-17T04:27:31.458Z,2.80
2023-01-17T04:30:02.809Z,2.70
2023-01-17T04:32:36.898Z,2.70
2023-01-17T04:35:09.523Z,2.60
2023-01-17T04:37:42.629Z,2.60
2023-01-17T04:40:14.476Z,2.60
2023-01-17T04:42:48.451Z,2.60
2023-01-17T04:45:18.164Z,2.60
2023-01-17T04:47:50.267Z,2.60
2023-01-17T04:50:21.030Z,2.50
2023-01-17T04:52:50.744Z,2.70
2023-01-17T04:55:19.550Z,2.50
2023-01-17T04:57:52.132Z,2.60
2023-01-17T05:00:24.302Z,2.60
2023-01-17T05:02:53.765Z,2.40
2023-01-17T05:05:26.299Z,2.40
2023-01-17T05:07:57.831Z,2.40
2023-01-17T05:10:30.564Z,2.40
2023-01-17T05:13:01.923Z,2.30
2023-01-17T05:15:35.080Z,2.40
2023-01-17T05:18:08.577Z,2.30
2023-01-17T05:20:39.432Z,2.30
2023-01-17T05:23:09.867Z,2.30
2023-01-17T05:25:40.356Z,2.40
2023-01-17T05:28:12.854Z,2.20
2023-01-17T05:30:47.259Z,2.50
2023-01-17T05:33:19.475Z,2.30
2023-01-17T05:35:50.952Z,2.30
2023-01-17T05:38:21.729Z,2.20
2023-01-17T05:40:51.630Z,2.20
2023-01-17T05:43:23.250Z,2.40
2023-01-17T05:45:53.507Z,2.30
2023-01-17T05:48:23.240Z,2.40
2023-01-17T05:50:54.694Z,2.40
2023-01-17T05:53:23.931Z,2.50
2023-01-17T05:55:55.813Z,2.50
2023-01-17T05:58:25.229Z,2.40
2023-01-17T06:00:57.836Z,2.40
2023-01-17T06:03:27.349Z,2.40
2023-01-17T06:05:58.369Z,2.30
2023-01-17T06:08:28.369Z,2.30
2023-01-17T06:11:00.312Z,2.20
2023-01-17T06:13:28.509Z,2.20
2023-01-17T06:15:57.873Z,2.20
2023-01-17T06:18:27.139Z,2.10
2023-01-17T06:20:57.203Z,2.00
2023-01-17T06:23:27.262Z,2.10
2023-01-17T06:25:58.362Z,2.00
2023-01-17T06:28:27.353Z,2.00
2023-01-17T06:30:56.403Z,2.30
2023-01-17T06:33:27.030Z,2.10
2023-01-17T06:35:57.431Z,2.40
2023-01-17T06:38:27.393Z,1.80
2023-01-17T06:41:00.694Z,1.70
2023-01-17T06:43:34.065Z,2.20
2023-01-17T06:46:03.101Z,1.70
2023-01-17T06:48:32.097Z,1.70
2023-01-17T06:51:03.545Z,1.60
2023-01-17T06:53:33.232Z,1.60
2023-01-17T06:56:03.710Z,1.60
2023-01-17T06:58:33.186Z,1.60
2023-01-17T07:01:09.656Z,1.60
2023-01-17T07:03:39.931Z,1.50
2023-01-17T07:06:15.538Z,1.50
2023-01-17T07:08:48.204Z,1.60
2023-01-17T07:11:19.347Z,1.50
2023-01-17T07:13:50.888Z,1.40
2023-01-17T07:16:19.859Z,1.30
2023-01-17T07:18:48.967Z,1.60
2023-01-17T07:21:22.988Z,1.40
2023-01-17T07:24:06.406Z,1.30
2023-01-17T07:26:41.234Z,1.40
2023-01-17T07:29:11.003Z,1.50
2023-01-17T07:31:40.489Z,1.40
2023-01-17T07:34:10.944Z,1.40
2023-01-17T07:36:41.569Z,1.40
2023-01-17T07:39:12.182Z,2.00
2023-01-17T07:41:45.470Z,1.40
2023-01-17T07:44:21.132Z,1.40
2023-01-17T07:46:52.627Z,1.40
2023-01-17T07:49:23.954Z,1.40
2023-01-17T07:51:57.656Z,1.40
2023-01-17T07:54:32.768Z,1.40
2023-01-17T07:57:06.949Z,1.40
2023-01-17T07:59:39.130Z,1.50
2023-01-17T08:02:11.410Z,1.10
2023-01-17T08:04:46.460Z,1.50
2023-01-17T08:07:19.825Z,1.60
2023-01-17T08:09:51.441Z,1.60
2023-01-17T08:12:21.785Z,1.60
2023-01-17T08:15:03.941Z,2.00
2023-01-17T08:17:35.006Z,1.80
2023-01-17T08:20:06.322Z,1.90
2023-01-17T08:22:37.818Z,2.00
2023-01-17T08:25:11.681Z,2.50
2023-01-17T08:27:45.511Z,2.20
2023-01-17T08:30:14.957Z,2.40
2023-01-17T08:32:45.843Z,2.40
2023-01-17T08:35:14.776Z,2.50
2023-01-17T08:37:45.223Z,2.30
2023-01-17T08:40:18.519Z,2.60
2023-01-17T08:42:57.879Z,2.60
2023-01-17T08:45:30.145Z,2.70
2023-01-17T08:48:00.600Z,2.70
2023-01-17T08:50:29.609Z,2.80
2023-01-17T08:53:02.184Z,2.80
2023-01-17T08:55:32.802Z,2.80
2023-01-17T08:58:02.606Z,2.70
2023-01-17T09:00:33.461Z,2.80
2023-01-17T09:03:03.638Z,2.80
2023-01-17T09:05:33.190Z,2.90
2023-01-17T09:08:05.820Z,2.90
2023-01-17T09:10:35.006Z,3.00
2023-01-17T09:13:07.001Z,3.10
2023-01-17T09:15:37.951Z,3.10
2023-01-17T09:18:06.534Z,3.60
2023-01-17T09:20:35.990Z,3.00
2023-01-17T09:23:06.974Z,3.00
2023-01-17T09:25:42.981Z,3.00
2023-01-17T09:28:23.190Z,3.10
2023-01-17T09:30:53.159Z,3.10
2023-01-17T09:33:23.284Z,3.10
2023-01-17T09:35:53.910Z,3.20
2023-01-17T09:38:24.625Z,3.20
2023-01-17T09:40:54.202Z,3.20
2023-01-17T09:43:40.745Z,3.30
2023-01-17T09:46:22.855Z,3.30
2023-01-17T09:49:02.710Z,3.30
2023-01-17T09:51:32.899Z,3.40
2023-01-17T09:54:06.209Z,3.50
2023-01-17T09:56:49.326Z,3.60
2023-01-17T09:59:35.240Z,3.70
2023-01-17T10:02:22.992Z,3.80
2023-01-17T10:05:21.250Z,3.80
2023-01-17T10:08:24.140Z,3.90
2023-01-17T10:11:18.126Z,4.00
2023-01-17T10:14:09.816Z,4.10
2023-01-17T10:16:54.042Z,4.20
2023-01-17T10:19:50.506Z,4.30
2023-01-17T10:22:47.745Z,4.40
2023-01-17T10:25:46.614Z,4.60
2023-01-17T10:28:28.261Z,4.80
2023-01-17T10:31:05.346Z,5.10
2023-01-17T10:33:45.510Z,5.50
2023-01-17T10:36:25.699Z,5.80
2023-01-17T10:39:03.079Z,6.20
2023-01-17T10:41:44.526Z,6.60
2023-01-17T10:44:31.885Z,6.80
2023-01-17T10:47:08.965Z,7.20
2023-01-17T10:49:48.687Z,8.00
2023-01-17T10:52:38.284Z,7.90
2023-01-17T10:55:27.901Z,8.40
2023-01-17T10:58:02.873Z,8.80
2023-01-17T11:00:55.788Z,9.30
2023-01-17T11:03:32.200Z,9.70
2023-01-17T11:06:22.002Z,10.10
2023-01-17T11:09:02.432Z,10.10
2023-01-17T11:11:50.150Z,10.50
2023-01-17T11:14:25.748Z,10.60
2023-01-17T11:17:05.739Z,11.00
2023-01-17T11:19:40.673Z,10.70
2023-01-17T11:22:17.333Z,10.10
2023-01-17T11:25:00.489Z,9.50
2023-01-17T11:27:33.807Z,9.10
2023-01-17T11:30:18.826Z,9.20
2023-01-17T11:32:57.236Z,9.60
2023-01-17T11:35:30.096Z,10.40
2023-01-17T11:41:17.510Z,11.40
2023-01-17T11:43:54.979Z,11.60
2023-01-17T11:46:23.784Z,12.00
2023-01-17T11:48:59.548Z,11.90
2023-01-17T11:51:32.875Z,11.90
2023-01-17T11:54:19.575Z,12.00
2023-01-17T11:56:47.881Z,12.50
2023-01-17T11:59:34.243Z,12.60
2023-01-17T12:02:44.534Z,13.00
2023-01-17T12:05:37.654Z,12.80
2023-01-17T12:08:22.790Z,11.60
2023-01-17T12:11:04.112Z,10.80
2023-01-17T12:14:01.690Z,10.30
2023-01-17T12:16:52.161Z,10.60
2023-01-17T12:20:01.285Z,10.80
2023-01-17T12:22:51.689Z,11.10
2023-01-17T12:25:34.435Z,10.80
2023-01-17T12:28:22.088Z,10.10
2023-01-17T12:31:12.466Z,9.50
2023-01-17T12:33:52.199Z,9.00
2023-01-17T12:36:40.075Z,8.60
2023-01-17T12:39:14.300Z,8.30
2023-01-17T12:42:04.833Z,7.80
2023-01-17T12:44:52.079Z,7.40
2023-01-17T12:47:24.053Z,7.20
2023-01-17T12:50:09.809Z,7.10
2023-01-17T12:52:52.976Z,6.80
2023-01-17T12:55:43.968Z,6.50
2023-01-17T12:58:23.024Z,6.40
2023-01-17T13:01:04.352Z,6.30
2023-01-17T13:04:11.136Z,6.40
2023-01-17T13:06:54.132Z,6.40
2023-01-17T13:09:31.847Z,6.40
2023-01-17T13:12:17.086Z,6.40
2023-01-17T13:14:49.808Z,6.50
2023-01-17T13:17:36.908Z,6.50
2023-01-17T13:20:22.700Z,6.50
2023-01-17T13:22:53.227Z,6.50
2023-01-17T13:25:39.655Z,6.40
2023-01-17T13:28:23.871Z,6.60
2023-01-17T13:31:27.089Z,6.20
2023-01-17T13:34:35.380Z,6.20
2023-01-17T13:37:42.531Z,6.20
2023-01-17T13:40:33.911Z,6.10
2023-01-17T13:43:09.510Z,6.20
2023-01-17T13:45:42.573Z,6.20
2023-01-17T13:48:32.468Z,6.10
2023-01-17T13:51:04.532Z,6.10
2023-01-17T13:54:06.998Z,6.10
2023-01-17T13:56:40.421Z,6.20
2023-01-17T13:59:48.228Z,6.20
2023-01-17T14:02:45.801Z,6.10
2023-01-17T14:05:23.623Z,6.40
2023-01-17T14:08:00.644Z,6.20
2023-01-17T14:10:38.754Z,6.20
2023-01-17T14:13:43.397Z,6.20
2023-01-17T14:16:32.377Z,6.20
2023-01-17T14:19:04.656Z,6.20
2023-01-17T14:21:37.493Z,6.00
2023-01-17T14:24:22.562Z,6.00
2023-01-17T14:27:01.574Z,5.80
2023-01-17T14:30:03.909Z,5.80
2023-01-17T14:32:40.341Z,5.80
2023-01-17T14:35:27.701Z,5.50
2023-01-17T14:38:01.804Z,5.60
2023-01-17T14:40:36.916Z,5.70
2023-01-17T14:43:15.504Z,5.50
2023-01-17T14:45:47.398Z,5.50
2023-01-17T14:48:22.693Z,5.50
2023-01-17T14:51:02.557Z,5.50
2023-01-17T14:53:36.811Z,5.40
2023-01-17T14:56:27.327Z,5.30
2023-01-17T14:59:17.604Z,5.30
2023-01-17T15:02:07.075Z,5.20
2023-01-17T15:04:39.833Z,5.20
2023-01-17T15:07:22.501Z,5.20
2023-01-17T15:09:57.184Z,5.20
2023-01-17T15:12:30.229Z,5.10
2023-01-17T15:15:43.388Z,5.10
2023-01-17T15:18:31.783Z,5.10
2023-01-17T15:21:05.898Z,5.00
2023-01-17T15:23:46.329Z,5.00
2023-01-17T15:26:25.215Z,5.00
2023-01-17T15:28:55.655Z,4.90
2023-01-17T15:31:41.966Z,4.90
2023-01-17T15:34:37.672Z,4.80
2023-01-17T15:37:28.568Z,4.80
2023-01-17T15:40:09.666Z,4.80
2023-01-17T15:42:46.366Z,4.70
2023-01-17T15:45:22.311Z,4.80
2023-01-17T15:47:53.273Z,4.70
2023-01-17T15:50:32.081Z,4.60
2023-01-17T15:53:07.770Z,4.60
2023-01-17T15:55:41.354Z,4.60
2023-01-17T15:58:35.669Z,4.60
2023-01-17T16:01:18.732Z,4.60
2023-01-17T16:03:56.058Z,4.50
2023-01-17T16:06:45.567Z,4.50
2023-01-17T16:09:37.894Z,4.40
2023-01-17T16:12:12.244Z,4.40
2023-01-17T16:15:02.487Z,4.40
2023-01-17T16:17:33.285Z,4.40
2023-01-17T16:20:03.755Z,4.40
2023-01-17T16:22:36.461Z,4.40
2023-01-17T16:25:15.714Z,4.40
2023-01-17T16:27:49.992Z,4.40
2023-01-17T16:30:23.233Z,4.40
2023-01-17T16:33:00.682Z,4.40
2023-01-17T16:35:33.240Z,4.30
2023-01-17T16:38:08.721Z,4.30
2023-01-17T16:40:46.054Z,4.30
2023-01-17T16:43:21.011Z,4.40
2023-01-17T16:45:52.813Z,4.30
2023-01-17T16:48:23.126Z,4.30
2023-01-17T16:50:53.563Z,4.30
2023-01-17T16:53:27.595Z,4.20
2023-01-17T16:56:07.843Z,4.20
2023-01-17T16:58:41.317Z,4.20
2023-01-17T17:01:16.764Z,4.20
2023-01-17T17:03:50.063Z,4.20
2023-01-17T17:06:22.069Z,4.30
2023-01-17T17:08:54.006Z,3.90
2023-01-17T17:11:26.600Z,4.10
2023-01-17T17:14:00.203Z,4.10
2023-01-17T17:16:34.000Z,4.10
2023-01-17T17:19:06.636Z,4.00
2023-01-17T17:21:42.721Z,4.50
2023-01-17T17:24:15.328Z,4.40
2023-01-17T17:26:53.299Z,4.10
2023-01-17T17:29:26.811Z,4.00
2023-01-17T17:31:58.665Z,4.10
2023-01-17T17:34:33.228Z,4.20
2023-01-17T17:37:03.717Z,4.20
2023-01-17T17:39:34.291Z,4.20
2023-01-17T17:42:03.033Z,4.20
2023-01-17T17:44:33.419Z,4.10
2023-01-17T17:47:02.596Z,4.10
2023-01-17T17:49:32.494Z,4.00
2023-01-17T17:52:07.096Z,4.00
2023-01-17T17:54:36.956Z,3.90
2023-01-17T17:57:07.073Z,3.90
2023-01-17T17:59:39.228Z,3.90
2023-01-17T18:02:11.192Z,3.80
2023-01-17T18:04:40.117Z,3.90
2023-01-17T18:07:08.976Z,3.70
2023-01-17T18:09:37.618Z,3.60
2023-01-17T18:12:07.902Z,3.50
2023-01-17T18:14:40.321Z,3.50
2023-01-17T18:17:09.359Z,3.50
2023-01-17T18:19:39.084Z,3.50
2023-01-17T18:22:08.625Z,3.40
2023-01-17T18:24:37.442Z,3.30
2023-01-17T18:27:07.441Z,3.30
2023-01-17T18:29:37.770Z,3.30
2023-01-17T18:32:10.004Z,3.30
2023-01-17T18:34:41.407Z,3.30
2023-01-17T18:37:11.617Z,3.30
2023-01-17T18:39:43.306Z,3.20
2023-01-17T18:42:12.181Z,3.20
2023-01-17T18:44:43.500Z,3.20
2023-01-17T18:47:13.255Z,3.20
2023-01-17T18:49:45.565Z,3.20
2023-01-17T18:52:17.995Z,3.20
2023-01-17T18:54:46.538Z,3.20
2023-01-17T18:57:18.586Z,3.20
2023-01-17T18:59:49.459Z,3.20
2023-01-17T19:02:20.480Z,3.40
2023-01-17T19:04:49.981Z,3.20
2023-01-17T19:07:18.680Z,3.20
2023-01-17T19:09:47.622Z,3.20
2023-01-17T19:12:18.595Z,3.10
2023-01-17T19:14:50.021Z,3.00
2023-01-17T19:17:19.994Z,3.00
2023-01-17T19:19:51.090Z,3.00
2023-01-17T19:22:21.658Z,2.90
2023-01-17T19:24:53.387Z,2.90
2023-01-17T19:27:24.377Z,2.90
2023-01-17T19:29:57.460Z,2.90
2023-01-17T19:32:26.448Z,2.90
2023-01-17T19:34:55.701Z,2.90
2023-01-17T19:37:25.637Z,2.70
2023-01-17T19:39:59.447Z,2.90
2023-01-17T19:42:29.254Z,2.70
2023-01-17T19:45:00.359Z,2.70
2023-01-17T19:47:28.760Z,2.70
2023-01-17T19:49:56.970Z,2.70
2023-01-17T19:52:26.232Z,2.60
2023-01-17T19:54:56.730Z,2.60
2023-01-17T19:57:26.415Z,2.60
2023-01-17T19:59:55.278Z,2.60
2023-01-17T20:02:27.658Z,2.60
2023-01-17T20:04:57.009Z,2.50
2023-01-17T20:07:25.645Z,2.50
2023-01-17T20:09:54.037Z,2.50
2023-01-17T20:12:22.645Z,2.50
2023-01-17T20:14:51.746Z,2.40
2023-01-17T20:17:20.261Z,2.40
2023-01-17T20:19:56.835Z,2.40
2023-01-17T20:22:26.490Z,2.40
2023-01-17T20:24:54.793Z,2.40
2023-01-17T20:27:27.632Z,2.30
2023-01-17T20:29:56.552Z,2.30
2023-01-17T20:32:25.472Z,2.30
2023-01-17T20:34:57.189Z,2.40
2023-01-17T20:37:25.955Z,2.40
2023-01-17T20:39:55.174Z,2.30
2023-01-17T20:42:23.540Z,2.30
2023-01-17T20:44:51.952Z,2.30
2023-01-17T20:47:20.484Z,2.30
2023-01-17T20:49:49.735Z,2.30
2023-01-17T20:52:19.920Z,2.40
2023-01-17T20:54:49.725Z,2.30
2023-01-17T20:57:18.172Z,2.20
2023-01-17T20:59:48.512Z,2.20
2023-01-17T21:02:17.367Z,2.20
2023-01-17T21:04:46.190Z,2.20
2023-01-17T21:07:15.294Z,2.30
2023-01-17T21:09:44.981Z,2.10
2023-01-17T21:12:23.005Z,2.20
2023-01-17T21:14:51.797Z,2.20
2023-01-17T21:22:15.779Z,2.10
2023-01-17T21:25:05.328Z,2.20
2023-01-17T21:27:34.820Z,2.10
2023-01-17T21:30:03.488Z,2.20
2023-01-17T21:32:31.988Z,2.20
2023-01-17T21:35:00.672Z,2.20
2023-01-17T21:37:29.963Z,2.20
2023-01-17T21:42:53.225Z,2.10
2023-01-17T21:45:22.022Z,2.20
2023-01-17T21:47:51.865Z,1.80
2023-01-17T21:50:32.816Z,2.20
2023-01-17T21:53:04.380Z,2.10
2023-01-17T21:56:00.421Z,2.10
2023-01-17T21:58:54.961Z,2.10
2023-01-17T22:01:26.550Z,2.00
2023-01-17T22:03:59.327Z,2.10
2023-01-17T22:06:32.048Z,2.10
2023-01-17T22:09:01.424Z,2.40
2023-01-17T22:11:31.633Z,2.10
2023-01-17T22:14:02.847Z,2.10
2023-01-17T22:16:32.473Z,2.10
2023-01-17T22:19:01.081Z,2.10
2023-01-17T22:21:30.986Z,2.10
2023-01-17T22:24:01.303Z,2.10
2023-01-17T22:26:32.976Z,2.10
2023-01-17T22:29:22.469Z,2.30
2023-01-17T22:31:52.092Z,2.20
2023-01-17T22:34:57.080Z,2.20
2023-01-17T22:37:25.581Z,1.50
2023-01-17T22:41:20.633Z,2.20
